createdAt,value
2018-06-20T00:00:34.243Z,68.71
2018-06-20T00:01:34.402Z,68.19
2018-06-20T00:02:34.211Z,68.15
2018-06-20T00:03:34.206Z,68.64
2018-06-20T00:04:34.232Z,68.35
2018-06-20T00:05:34.217Z,68.79
2018-06-20T00:06:34.227Z,68.42
2018-06-20T00:07:34.220Z,68.09
2018-06-20T00:08:34.220Z,68.5
2018-06-20T00:09:34.230Z,68.34
2018-06-20T00:10:34.252Z,68.21
2018-06-20T00:11:34.210Z,68.7
2018-06-20T00:12:34.210Z,68.67
2018-06-20T00:13:34.216Z,68.83
2018-06-20T00:14:34.219Z,69.04
2018-06-20T00:15:34.219Z,69.07
2018-06-20T00:16:34.211Z,69.1
2018-06-20T00:17:34.234Z,68.6
2018-06-20T00:18:34.241Z,69.1
2018-06-20T00:19:34.214Z,69.08
2018-06-20T00:20:34.225Z,69.59
2018-06-20T00:21:34.271Z,68.76
2018-06-20T00:22:34.243Z,69.66
2018-06-20T00:23:34.261Z,69.77
2018-06-20T00:24:34.212Z,70.65
2018-06-20T00:25:34.223Z,70.86
2018-06-20T00:26:34.296Z,70.33
2018-06-20T00:27:34.289Z,70.34
2018-06-20T00:28:34.244Z,69.71
2018-06-20T00:29:34.225Z,70.02
2018-06-20T00:30:34.247Z,70.65
2018-06-20T00:31:34.229Z,70.89
2018-06-20T00:32:34.397Z,70.4
2018-06-20T00:33:34.304Z,70.28
2018-06-20T00:34:34.331Z,69.81
2018-06-20T00:35:34.263Z,69.99
2018-06-20T00:36:34.280Z,70.21
2018-06-20T00:37:34.260Z,71.17
2018-06-20T00:38:34.259Z,70.85
2018-06-20T00:39:34.239Z,71.03
2018-06-20T00:40:34.255Z,70.82
2018-06-20T00:41:34.254Z,70.13
2018-06-20T00:42:34.288Z,70.18
2018-06-20T00:43:34.236Z,70.09
2018-06-20T00:44:34.225Z,70.55
2018-06-20T00:45:34.386Z,70.64
2018-06-20T00:46:34.234Z,70.81
2018-06-20T00:47:34.249Z,71.19
2018-06-20T00:48:34.241Z,70.98
2018-06-20T00:49:34.260Z,71.04
2018-06-20T00:50:34.412Z,71.26
2018-06-20T00:51:34.252Z,71.82
2018-06-20T00:52:34.261Z,71.75
2018-06-20T00:53:34.244Z,71.32
2018-06-20T00:54:34.231Z,70.63
2018-06-20T00:55:34.301Z,70.98
2018-06-20T00:56:34.273Z,71.58
2018-06-20T00:57:34.281Z,71.23
2018-06-20T00:58:34.242Z,71.61
2018-06-20T00:59:34.250Z,71.17
2018-06-20T01:00:34.247Z,71.51
2018-06-20T01:01:34.256Z,71.47
2018-06-20T01:02:34.248Z,71.43
2018-06-20T01:03:34.255Z,71.57
2018-06-20T01:04:34.254Z,71.69
2018-06-20T01:05:34.303Z,71.67
2018-06-20T01:06:34.269Z,70.84
2018-06-20T01:07:34.240Z,71.99
2018-06-20T01:08:34.414Z,71.81
2018-06-20T01:09:34.296Z,71.59
2018-06-20T01:10:34.257Z,71.5
2018-06-20T01:11:34.303Z,71.65
2018-06-20T01:12:34.265Z,70.9
2018-06-20T01:13:34.259Z,71.65
2018-06-20T01:14:34.295Z,71.34
2018-06-20T01:15:34.248Z,71.49
2018-06-20T01:16:34.250Z,71.46
2018-06-20T01:17:34.262Z,71.54
2018-06-20T01:18:34.289Z,71.6
2018-06-20T01:19:34.261Z,71.76
2018-06-20T01:20:34.277Z,71.9
2018-06-20T01:21:34.287Z,71.12
2018-06-20T01:22:34.287Z,71.99
2018-06-20T01:23:34.271Z,71.41
2018-06-20T01:24:34.292Z,71.64
2018-06-20T01:25:34.261Z,71.94
2018-06-20T01:26:34.280Z,71.93
2018-06-20T01:27:34.302Z,71.41
2018-06-20T01:28:34.267Z,71.61
2018-06-20T01:29:34.318Z,71.68
2018-06-20T01:30:34.290Z,71.19
2018-06-20T01:31:34.271Z,72.12
2018-06-20T01:32:34.282Z,71.77
2018-06-20T01:33:34.288Z,71.55
2018-06-20T01:34:34.262Z,72.1
2018-06-20T01:35:34.269Z,72.12
2018-06-20T01:36:34.373Z,71.4
2018-06-20T01:37:34.423Z,71.06
2018-06-20T01:38:34.327Z,71.11
2018-06-20T01:39:35.025Z,71.04
2018-06-20T01:40:34.270Z,70.6
2018-06-20T01:41:34.399Z,70.87
2018-06-20T01:42:34.281Z,71.08
2018-06-20T01:43:34.295Z,70.94
2018-06-20T01:44:34.373Z,71.21
2018-06-20T01:45:34.348Z,72.03
2018-06-20T01:46:34.292Z,71.65
2018-06-20T01:47:34.282Z,71.81
2018-06-20T01:48:34.295Z,72.28
2018-06-20T01:49:34.352Z,72.49
2018-06-20T01:50:34.297Z,72.04
2018-06-20T01:51:34.305Z,72.17
2018-06-20T01:52:34.283Z,72.06
2018-06-20T01:53:34.276Z,72.68
2018-06-20T01:54:34.400Z,72.46
2018-06-20T01:55:34.529Z,72.59
2018-06-20T01:56:34.339Z,72.63
2018-06-20T01:57:34.319Z,72.39
2018-06-20T01:58:34.286Z,71.98
2018-06-20T01:59:34.464Z,72.82
2018-06-20T02:00:34.306Z,72.66
2018-06-20T02:01:34.293Z,72.86
2018-06-20T02:02:34.296Z,72.51
2018-06-20T02:03:34.305Z,72.31
2018-06-20T02:04:34.307Z,72.83
2018-06-20T02:05:34.290Z,73.01
2018-06-20T02:06:34.395Z,72.69
2018-06-20T02:07:34.327Z,72.93
2018-06-20T02:08:34.320Z,72.57
2018-06-20T02:09:34.339Z,72.58
2018-06-20T02:10:34.313Z,72.82
2018-06-20T02:11:34.372Z,72.97
2018-06-20T02:12:34.493Z,72.31
2018-06-20T02:13:34.310Z,72.64
2018-06-20T02:14:34.405Z,72.58
2018-06-20T02:15:34.304Z,72.39
2018-06-20T02:16:34.292Z,72.65
2018-06-20T02:17:34.296Z,73.07
2018-06-20T02:18:34.312Z,72.99
2018-06-20T02:19:34.311Z,73.85
2018-06-20T02:20:34.328Z,73.19
2018-06-20T02:21:34.304Z,72.68
2018-06-20T02:22:34.491Z,73.8
2018-06-20T02:23:34.330Z,74.08
2018-06-20T02:24:34.324Z,74.29
2018-06-20T02:25:34.303Z,74.11
2018-06-20T02:26:34.299Z,74.47
2018-06-20T02:27:34.308Z,74.08
2018-06-20T02:28:34.299Z,74.59
2018-06-20T02:29:34.321Z,75.06
2018-06-20T02:30:34.337Z,75.34
2018-06-20T02:31:34.302Z,74.9
2018-06-20T02:32:34.352Z,74.13
2018-06-20T02:33:34.308Z,74.95
2018-06-20T02:34:34.318Z,74.97
2018-06-20T02:35:34.323Z,75.16
2018-06-20T02:36:34.355Z,74.88
2018-06-20T02:37:34.344Z,74.49
2018-06-20T02:38:34.325Z,74.3
2018-06-20T02:39:34.325Z,74.39
2018-06-20T02:40:34.349Z,74.46
2018-06-20T02:41:34.339Z,74.46
2018-06-20T02:42:34.332Z,74.21
2018-06-20T02:43:34.458Z,74.15
2018-06-20T02:44:34.375Z,73.76
2018-06-20T02:45:34.340Z,74.52
2018-06-20T02:46:34.345Z,74.31
2018-06-20T02:47:34.317Z,74.18
2018-06-20T02:48:34.320Z,73.94
2018-06-20T02:49:34.475Z,74.21
2018-06-20T02:50:34.350Z,74.37
2018-06-20T02:51:34.640Z,74.97
2018-06-20T02:52:34.515Z,74.93
2018-06-20T02:53:34.336Z,75.08
2018-06-20T02:54:34.341Z,75.17
2018-06-20T02:55:34.405Z,74.77
2018-06-20T02:56:34.323Z,75.08
2018-06-20T02:57:34.344Z,75.69
2018-06-20T02:58:34.352Z,75.47
2018-06-20T02:59:34.374Z,75.72
2018-06-20T03:00:34.343Z,75.55
2018-06-20T03:01:34.331Z,75.82
2018-06-20T03:02:34.688Z,75.02
2018-06-20T03:03:34.324Z,75.89
2018-06-20T03:04:34.336Z,75.82
2018-06-20T03:05:34.335Z,75.26
2018-06-20T03:06:34.389Z,75.22
2018-06-20T03:07:34.510Z,75.49
2018-06-20T03:08:34.334Z,75.77
2018-06-20T03:09:34.356Z,75.36
2018-06-20T03:10:34.363Z,75.5
2018-06-20T03:11:34.384Z,75.39
2018-06-20T03:12:34.380Z,75.82
2018-06-20T03:13:34.336Z,76.05
2018-06-20T03:14:34.347Z,75.89
2018-06-20T03:15:34.326Z,75.47
2018-06-20T03:16:34.334Z,76.62
2018-06-20T03:17:34.406Z,75.74
2018-06-20T03:18:34.362Z,75.15
2018-06-20T03:19:34.336Z,75.69
2018-06-20T03:20:34.347Z,75.84
2018-06-20T03:21:34.357Z,75.59
2018-06-20T03:22:34.347Z,76.01
2018-06-20T03:23:34.353Z,75.82
2018-06-20T03:24:34.366Z,75.87
2018-06-20T03:25:34.506Z,75.96
2018-06-20T03:26:34.365Z,75.46
2018-06-20T03:27:34.379Z,75.6
2018-06-20T03:28:34.352Z,75.37
2018-06-20T03:29:34.387Z,75.34
2018-06-20T03:30:34.473Z,75.24
2018-06-20T03:31:34.351Z,75.32
2018-06-20T03:32:34.361Z,74.83
2018-06-20T03:33:34.355Z,75.19
2018-06-20T03:34:34.342Z,75.23
2018-06-20T03:35:34.335Z,75
2018-06-20T03:36:34.347Z,74.47
2018-06-20T03:37:34.355Z,74.38
2018-06-20T03:38:34.364Z,74.98
2018-06-20T03:39:34.353Z,75.36
2018-06-20T03:40:34.421Z,75.34
2018-06-20T03:41:34.362Z,75.07
2018-06-20T03:42:34.361Z,75.24
2018-06-20T03:43:34.367Z,75.31
2018-06-20T03:44:34.366Z,75.65
2018-06-20T03:45:34.369Z,75.75
2018-06-20T03:46:34.356Z,75.67
2018-06-20T03:47:34.379Z,75.42
2018-06-20T03:48:34.405Z,75.32
2018-06-20T03:49:34.392Z,75.07
2018-06-20T03:50:34.371Z,75.69
2018-06-20T03:51:34.346Z,75.44
2018-06-20T03:52:34.356Z,75.83
2018-06-20T03:53:34.383Z,75.79
2018-06-20T03:54:34.358Z,75.6
2018-06-20T03:55:34.553Z,75.63
2018-06-20T03:56:34.425Z,75.24
2018-06-20T03:57:34.376Z,75.85
2018-06-20T03:58:34.374Z,75.53
2018-06-20T03:59:34.371Z,76.24
2018-06-20T04:00:34.375Z,76.72
2018-06-20T04:01:34.374Z,76.76
2018-06-20T04:02:34.415Z,76.59
2018-06-20T04:03:34.373Z,76.71
2018-06-20T04:04:34.370Z,76.66
2018-06-20T04:05:34.383Z,76.72
2018-06-20T04:06:34.382Z,76.48
2018-06-20T04:07:34.395Z,76.65
2018-06-20T04:08:34.522Z,77.39
2018-06-20T04:09:34.404Z,76.38
2018-06-20T04:10:34.376Z,75.97
2018-06-20T04:11:34.411Z,76.01
2018-06-20T04:12:34.382Z,75.86
2018-06-20T04:13:34.392Z,75.54
2018-06-20T04:14:34.410Z,75.31
2018-06-20T04:15:34.379Z,76.1
2018-06-20T04:16:34.388Z,76.39
2018-06-20T04:17:34.368Z,76.16
2018-06-20T04:18:34.389Z,75.93
2018-06-20T04:19:34.402Z,75.9
2018-06-20T04:20:34.377Z,75.93
2018-06-20T04:21:34.433Z,75.68
2018-06-20T04:22:34.425Z,75.67
2018-06-20T04:23:34.411Z,75.64
2018-06-20T04:24:34.401Z,75.85
2018-06-20T04:25:34.406Z,75.67
2018-06-20T04:26:34.427Z,75.7
2018-06-20T04:27:34.387Z,75.2
2018-06-20T04:28:34.419Z,75.64
2018-06-20T04:29:34.395Z,75.59
2018-06-20T04:30:34.748Z,76.37
2018-06-20T04:31:34.401Z,75.72
2018-06-20T04:32:34.450Z,75.98
2018-06-20T04:33:34.422Z,76.43
2018-06-20T04:34:34.466Z,75.73
2018-06-20T04:35:34.448Z,75.82
2018-06-20T04:36:34.396Z,76.12
2018-06-20T04:37:34.571Z,75.45
2018-06-20T04:38:34.425Z,75.62
2018-06-20T04:39:34.418Z,75.51
2018-06-20T04:40:34.619Z,75.73
2018-06-20T04:41:34.477Z,75.3
2018-06-20T04:42:34.397Z,75.28
2018-06-20T04:43:34.420Z,75.62
2018-06-20T04:44:34.456Z,75.16
2018-06-20T04:45:34.443Z,75.86
2018-06-20T04:46:34.395Z,75.07
2018-06-20T04:47:34.405Z,75.31
2018-06-20T04:48:34.418Z,75.27
2018-06-20T04:49:34.413Z,75.2
2018-06-20T04:50:34.423Z,75.19
2018-06-20T04:51:34.398Z,75.4
2018-06-20T04:52:34.420Z,75.35
2018-06-20T04:53:34.397Z,74.99
2018-06-20T04:54:34.425Z,75.12
2018-06-20T04:55:34.424Z,74.89
2018-06-20T04:56:34.403Z,74.84
2018-06-20T04:57:34.434Z,74.74
2018-06-20T04:58:34.407Z,75.44
2018-06-20T04:59:34.442Z,75.02
2018-06-20T05:00:34.410Z,74.85
2018-06-20T05:01:34.469Z,75.07
2018-06-20T05:02:34.430Z,75.12
2018-06-20T05:03:34.423Z,75.15
2018-06-20T05:04:34.437Z,74.92
2018-06-20T05:05:34.453Z,75.17
2018-06-20T05:06:34.549Z,75.03
2018-06-20T05:07:34.423Z,74.95
2018-06-20T05:08:34.427Z,74.83
2018-06-20T05:09:34.492Z,75.36
2018-06-20T05:10:34.421Z,75.05
2018-06-20T05:11:34.468Z,75.02
2018-06-20T05:12:34.453Z,74.81
2018-06-20T05:13:34.489Z,74.61
2018-06-20T05:14:34.649Z,74.77
2018-06-20T05:15:34.427Z,74.68
2018-06-20T05:16:34.496Z,74.51
2018-06-20T05:17:34.446Z,75.26
2018-06-20T05:18:34.426Z,75.55
2018-06-20T05:19:34.436Z,75.76
2018-06-20T05:20:34.440Z,75.77
2018-06-20T05:21:34.451Z,75.39
2018-06-20T05:22:34.566Z,75.14
2018-06-20T05:23:34.460Z,75.02
2018-06-20T05:24:34.623Z,75.59
2018-06-20T05:25:34.427Z,75.09
2018-06-20T05:26:34.711Z,74.96
2018-06-20T05:27:34.733Z,75.39
2018-06-20T05:28:34.605Z,74.81
2018-06-20T05:29:34.546Z,75.22
2018-06-20T05:30:34.577Z,74.99
2018-06-20T05:31:34.604Z,74.84
2018-06-20T05:32:34.562Z,74.82
2018-06-20T05:33:34.741Z,74.99
2018-06-20T05:34:34.592Z,75.17
2018-06-20T05:35:34.587Z,74.89
2018-06-20T05:36:34.646Z,74.53
2018-06-20T05:37:34.596Z,74.78
2018-06-20T05:38:34.620Z,74.43
2018-06-20T05:39:34.629Z,74.6
2018-06-20T05:40:34.686Z,74.34
2018-06-20T05:41:34.579Z,74.92
2018-06-20T05:42:34.642Z,75.23
2018-06-20T05:43:34.675Z,74.74
2018-06-20T05:44:34.655Z,74.37
2018-06-20T05:45:34.668Z,74.95
2018-06-20T05:46:34.599Z,74.82
2018-06-20T05:47:34.683Z,74.71
2018-06-20T05:48:34.606Z,74.45
2018-06-20T05:49:34.685Z,74.25
2018-06-20T05:50:34.704Z,75.09
2018-06-20T05:51:34.704Z,74.85
2018-06-20T05:52:34.456Z,74.6
2018-06-20T05:53:34.682Z,74.53
2018-06-20T05:54:34.451Z,74.28
2018-06-20T05:55:34.460Z,74.43
2018-06-20T05:56:34.469Z,74.56
2018-06-20T05:57:34.483Z,74.71
2018-06-20T05:58:34.460Z,74.65
2018-06-20T05:59:34.505Z,74.36
2018-06-20T06:00:34.451Z,74.37
2018-06-20T06:01:34.492Z,74.44
2018-06-20T06:02:34.463Z,74.17
2018-06-20T06:03:34.778Z,74.05
2018-06-20T06:04:34.473Z,74.02
2018-06-20T06:05:34.485Z,74.26
2018-06-20T06:06:34.446Z,73.8
2018-06-20T06:07:34.464Z,73.9
2018-06-20T06:08:34.814Z,74.22
2018-06-20T06:09:34.456Z,73.95
2018-06-20T06:10:34.510Z,74.07
2018-06-20T06:11:34.475Z,73.79
2018-06-20T06:12:34.488Z,73.83
2018-06-20T06:13:34.569Z,73.97
2018-06-20T06:14:34.472Z,74.05
2018-06-20T06:15:34.493Z,74.28
2018-06-20T06:16:34.481Z,73.9
2018-06-20T06:17:34.614Z,74.2
2018-06-20T06:18:34.485Z,74.17
2018-06-20T06:19:34.521Z,73.76
2018-06-20T06:20:34.484Z,73.37
2018-06-20T06:21:34.496Z,73.57
2018-06-20T06:22:34.486Z,73.52
2018-06-20T06:23:34.853Z,73.12
2018-06-20T06:24:34.486Z,72.76
2018-06-20T06:25:34.470Z,73.47
2018-06-20T06:26:34.494Z,73.29
2018-06-20T06:27:34.493Z,73.85
2018-06-20T06:28:34.699Z,73.52
2018-06-20T06:29:34.548Z,73.38
2018-06-20T06:30:34.537Z,73.3
2018-06-20T06:31:34.472Z,73.08
2018-06-20T06:32:34.514Z,73.04
2018-06-20T06:33:34.543Z,72.88
2018-06-20T06:34:34.496Z,73.02
2018-06-20T06:35:34.497Z,73.12
2018-06-20T06:36:34.496Z,72.94
2018-06-20T06:37:34.534Z,72.82
2018-06-20T06:38:34.495Z,72.29
2018-06-20T06:39:34.502Z,71.84
2018-06-20T06:40:34.525Z,72.32
2018-06-20T06:41:34.494Z,72.39
2018-06-20T06:42:34.471Z,72.49
2018-06-20T06:43:34.483Z,72.61
2018-06-20T06:44:34.722Z,72.66
2018-06-20T06:45:35.090Z,72.6
2018-06-20T06:46:34.503Z,72.7
2018-06-20T06:47:34.517Z,73.05
2018-06-20T06:48:34.525Z,71.95
2018-06-20T06:49:34.537Z,72.11
2018-06-20T06:50:34.490Z,72.11
2018-06-20T06:51:34.519Z,72.54
2018-06-20T06:52:34.530Z,72.38
2018-06-20T06:53:34.487Z,72.4
2018-06-20T06:54:34.491Z,72.04
2018-06-20T06:55:34.483Z,72.16
2018-06-20T06:56:34.564Z,72.1
2018-06-20T06:57:34.491Z,71.97
2018-06-20T06:58:34.545Z,71.31
2018-06-20T06:59:34.482Z,72.12
2018-06-20T07:00:34.533Z,72
2018-06-20T07:01:34.718Z,71.48
2018-06-20T07:02:34.541Z,71.65
2018-06-20T07:03:34.512Z,72.04
2018-06-20T07:04:34.505Z,71.95
2018-06-20T07:05:34.556Z,71.89
2018-06-20T07:06:34.500Z,71.49
2018-06-20T07:07:34.499Z,71.3
2018-06-20T07:08:34.506Z,71.37
2018-06-20T07:09:34.506Z,71.31
2018-06-20T07:10:34.502Z,71.51
2018-06-20T07:11:34.516Z,71.29
2018-06-20T07:12:34.487Z,70.73
2018-06-20T07:13:34.516Z,69.86
2018-06-20T07:14:34.529Z,69.98
2018-06-20T07:15:34.587Z,69.98
2018-06-20T07:16:34.567Z,70.08
2018-06-20T07:17:34.560Z,70.1
2018-06-20T07:18:34.555Z,70.34
2018-06-20T07:19:34.527Z,70.44
2018-06-20T07:20:34.529Z,70.01
2018-06-20T07:21:34.544Z,68.67
2018-06-20T07:22:34.517Z,69.15
2018-06-20T07:23:34.574Z,69.33
2018-06-20T07:24:34.616Z,68.89
2018-06-20T07:25:34.516Z,69.31
2018-06-20T07:26:34.535Z,69.29
2018-06-20T07:27:34.507Z,69.45
2018-06-20T07:28:34.739Z,69
2018-06-20T07:29:34.551Z,67.58
2018-06-20T07:30:34.508Z,68.33
2018-06-20T07:31:34.522Z,68.36
2018-06-20T07:32:34.607Z,68.68
2018-06-20T07:33:34.537Z,68.33
2018-06-20T07:34:34.918Z,67.66
2018-06-20T07:35:35.063Z,67.12
2018-06-20T07:36:34.536Z,67.57
2018-06-20T07:37:34.573Z,67.14
2018-06-20T07:38:34.539Z,65.98
2018-06-20T07:39:34.943Z,65.77
2018-06-20T07:40:34.567Z,65.89
2018-06-20T07:41:34.592Z,65.57
2018-06-20T07:42:34.585Z,65.85
2018-06-20T07:43:34.535Z,66.2
2018-06-20T07:44:34.567Z,66.83
2018-06-20T07:45:34.584Z,66.28
2018-06-20T07:46:34.516Z,67.05
2018-06-20T07:47:34.533Z,66.77
2018-06-20T07:48:34.547Z,66.21
2018-06-20T07:49:34.719Z,65.96
2018-06-20T07:50:34.588Z,66.07
2018-06-20T07:51:34.675Z,65.88
2018-06-20T07:52:34.785Z,65.51
2018-06-20T07:53:34.634Z,65.34
2018-06-20T07:54:34.765Z,65.08
2018-06-20T07:55:34.631Z,65.16
2018-06-20T07:56:34.674Z,65
2018-06-20T07:57:34.656Z,64.91
2018-06-20T07:58:34.677Z,65.73
2018-06-20T07:59:34.606Z,65.09
2018-06-20T08:00:34.669Z,65.46
2018-06-20T08:01:34.682Z,65.79
2018-06-20T08:02:34.629Z,65.98
2018-06-20T08:03:34.816Z,65.44
2018-06-20T08:04:34.649Z,65.28
2018-06-20T08:05:34.606Z,65.17
2018-06-20T08:06:34.640Z,64.9
2018-06-20T08:07:34.632Z,65.02
2018-06-20T08:08:34.642Z,65.92
2018-06-20T08:09:34.673Z,65.49
2018-06-20T08:10:34.666Z,65.62
2018-06-20T08:11:34.678Z,65.79
2018-06-20T08:12:34.689Z,65.38
2018-06-20T08:13:34.675Z,65.04
2018-06-20T08:14:34.682Z,63.49
2018-06-20T08:15:34.676Z,63.52
2018-06-20T08:16:34.686Z,63.17
2018-06-20T08:17:34.689Z,63.53
2018-06-20T08:18:34.673Z,63.26
2018-06-20T08:19:34.706Z,63.51
2018-06-20T08:20:34.698Z,63.51
2018-06-20T08:21:34.690Z,62.72
2018-06-20T08:22:34.684Z,62.88
2018-06-20T08:23:34.649Z,60.92
2018-06-20T08:24:34.660Z,61.28
2018-06-20T08:25:34.670Z,61.28
2018-06-20T08:26:34.673Z,60.71
2018-06-20T08:27:34.681Z,61.4
2018-06-20T08:28:34.684Z,62.41
2018-06-20T08:29:34.657Z,61.87
2018-06-20T08:30:34.671Z,61.67
2018-06-20T08:31:34.673Z,62.67
2018-06-20T08:32:34.693Z,62.53
2018-06-20T08:33:34.692Z,62.59
2018-06-20T08:34:34.688Z,61.83
2018-06-20T08:35:34.697Z,61.87
2018-06-20T08:36:34.831Z,60.42
2018-06-20T08:37:34.703Z,60.08
2018-06-20T08:38:34.769Z,60.96
2018-06-20T08:39:34.715Z,60.77
2018-06-20T08:40:34.725Z,61.05
2018-06-20T08:41:35.046Z,61.41
2018-06-20T08:42:34.974Z,61.64
2018-06-20T08:43:34.587Z,61.28
2018-06-20T08:44:34.909Z,60.86
2018-06-20T08:45:34.590Z,60.61
2018-06-20T08:46:34.579Z,60.4
2018-06-20T08:47:34.599Z,59.52
2018-06-20T08:48:34.566Z,59.32
2018-06-20T08:49:34.614Z,59.56
2018-06-20T08:50:34.778Z,59.54
2018-06-20T08:51:34.921Z,59.56
2018-06-20T08:52:34.597Z,59.93
2018-06-20T08:53:34.566Z,59.82
2018-06-20T08:54:34.576Z,60.04
2018-06-20T08:55:34.581Z,60.5
2018-06-20T08:56:34.568Z,60.64
2018-06-20T08:57:34.959Z,60.41
2018-06-20T08:58:34.637Z,59.9
2018-06-20T08:59:34.601Z,59.54
2018-06-20T09:00:34.607Z,60.03
2018-06-20T09:01:34.571Z,59.27
2018-06-20T09:02:34.603Z,59.45
2018-06-20T09:03:34.618Z,60.08
2018-06-20T09:04:34.613Z,59.32
2018-06-20T09:05:34.598Z,58.9
2018-06-20T09:06:34.658Z,58.61
2018-06-20T09:07:34.575Z,59.06
2018-06-20T09:08:34.649Z,58.43
2018-06-20T09:09:34.593Z,58.47
2018-06-20T09:10:34.582Z,58.89
2018-06-20T09:11:34.621Z,58.48
2018-06-20T09:12:34.632Z,58.95
2018-06-20T09:13:34.583Z,58.21
2018-06-20T09:14:34.603Z,58.38
2018-06-20T09:15:34.604Z,58.46
2018-06-20T09:16:34.619Z,58.6
2018-06-20T09:17:34.609Z,57.61
2018-06-20T09:18:34.608Z,57.85
2018-06-20T09:19:34.600Z,57.08
2018-06-20T09:20:34.673Z,57.57
2018-06-20T09:21:34.622Z,58.05
2018-06-20T09:22:34.620Z,58.25
2018-06-20T09:23:34.635Z,57.17
2018-06-20T09:24:34.667Z,57.36
2018-06-20T09:25:34.597Z,57.28
2018-06-20T09:26:34.581Z,57.9
2018-06-20T09:27:34.594Z,58.04
2018-06-20T09:28:34.615Z,58.04
2018-06-20T09:29:34.602Z,57.64
2018-06-20T09:30:34.616Z,57.71
2018-06-20T09:31:34.645Z,57.54
2018-06-20T09:32:34.603Z,57.79
2018-06-20T09:33:34.639Z,56.87
2018-06-20T09:34:34.634Z,55.7
2018-06-20T09:35:34.647Z,56.68
2018-06-20T09:36:34.610Z,56.23
2018-06-20T09:37:34.599Z,55.73
2018-06-20T09:38:34.670Z,55.92
2018-06-20T09:39:34.675Z,55.05
2018-06-20T09:40:34.610Z,54.45
2018-06-20T09:41:34.606Z,54.47
2018-06-20T09:42:34.719Z,54.64
2018-06-20T09:43:34.619Z,55.08
2018-06-20T09:44:34.642Z,55.23
2018-06-20T09:45:34.613Z,55.55
2018-06-20T09:46:34.642Z,55.57
2018-06-20T09:47:34.665Z,55.13
2018-06-20T09:48:34.719Z,55.58
2018-06-20T09:49:34.666Z,54.92
2018-06-20T09:50:34.666Z,53.96
2018-06-20T09:51:34.713Z,54.64
2018-06-20T09:52:34.628Z,54.41
2018-06-20T09:53:34.679Z,55.01
2018-06-20T09:54:34.675Z,54.5
2018-06-20T09:55:34.697Z,53.33
2018-06-20T09:56:34.640Z,54.07
2018-06-20T09:57:34.614Z,54.92
2018-06-20T09:58:34.642Z,54.68
2018-06-20T09:59:34.613Z,54.62
2018-06-20T10:00:34.628Z,54.29
2018-06-20T10:01:34.720Z,53.66
2018-06-20T10:02:34.626Z,53.97
2018-06-20T10:03:34.716Z,54.04
2018-06-20T10:04:34.621Z,52.67
2018-06-20T10:05:34.808Z,52.88
2018-06-20T10:06:34.675Z,52.16
2018-06-20T10:07:34.647Z,52.31
2018-06-20T10:08:34.632Z,53.26
2018-06-20T10:09:34.630Z,52.28
2018-06-20T10:10:34.741Z,53.9
2018-06-20T10:11:34.683Z,52.76
2018-06-20T10:12:34.754Z,51.09
2018-06-20T10:13:34.654Z,51.34
2018-06-20T10:14:34.627Z,51.56
2018-06-20T10:15:34.620Z,51.71
2018-06-20T10:16:34.817Z,52.32
2018-06-20T10:17:34.715Z,53.09
2018-06-20T10:18:34.635Z,52.61
2018-06-20T10:19:34.650Z,52.03
2018-06-20T10:20:34.654Z,52.78
2018-06-20T10:21:34.658Z,53.52
2018-06-20T10:22:34.641Z,53.99
2018-06-20T10:23:34.729Z,53.36
2018-06-20T10:24:34.668Z,52.23
2018-06-20T10:25:34.662Z,51.92
2018-06-20T10:26:34.753Z,52.42
2018-06-20T10:27:34.713Z,52.09
2018-06-20T10:28:34.725Z,52.79
2018-06-20T10:29:34.719Z,52.77
2018-06-20T10:30:34.724Z,52.78
2018-06-20T10:31:34.659Z,52.47
2018-06-20T10:32:34.709Z,52.29
2018-06-20T10:33:34.648Z,51.53
2018-06-20T10:34:34.653Z,51.14
2018-06-20T10:35:34.647Z,50.76
2018-06-20T10:36:34.665Z,50.58
2018-06-20T10:37:34.734Z,52.15
2018-06-20T10:38:34.653Z,51.63
2018-06-20T10:39:34.656Z,52.18
2018-06-20T10:40:34.687Z,52.47
2018-06-20T10:41:34.679Z,50.72
2018-06-20T10:42:34.681Z,52.14
2018-06-20T10:43:34.684Z,52.08
2018-06-20T10:44:34.651Z,51.85
2018-06-20T10:45:34.685Z,50.5
2018-06-20T10:46:34.704Z,50.57
2018-06-20T10:47:34.653Z,49.41
2018-06-20T10:48:34.672Z,49.53
2018-06-20T10:49:34.696Z,50.73
2018-06-20T10:50:34.703Z,51.23
2018-06-20T10:51:34.928Z,51.46
2018-06-20T10:52:34.650Z,51.64
2018-06-20T10:53:34.681Z,50.47
2018-06-20T10:54:34.819Z,50.93
2018-06-20T10:55:34.827Z,51.22
2018-06-20T10:56:34.872Z,51.07
2018-06-20T10:57:34.676Z,51.01
2018-06-20T10:58:34.814Z,50.18
2018-06-20T10:59:34.675Z,50.59
2018-06-20T11:00:34.681Z,50.95
2018-06-20T11:01:34.818Z,49.88
2018-06-20T11:02:34.653Z,50.04
2018-06-20T11:03:34.650Z,49.1
2018-06-20T11:04:34.668Z,49.12
2018-06-20T11:05:34.664Z,48.98
2018-06-20T11:06:34.670Z,48.24
2018-06-20T11:07:34.914Z,47.88
2018-06-20T11:08:34.680Z,47.94
2018-06-20T11:09:34.764Z,48.37
2018-06-20T11:10:34.710Z,48.49
2018-06-20T11:11:34.807Z,48.65
2018-06-20T11:12:34.672Z,48.96
2018-06-20T11:13:34.837Z,49.93
2018-06-20T11:14:34.718Z,48.57
2018-06-20T11:15:34.684Z,48.24
2018-06-20T11:16:34.680Z,48.39
2018-06-20T11:17:34.710Z,48.15
2018-06-20T11:18:34.751Z,49.75
2018-06-20T11:19:34.852Z,49.17
2018-06-20T11:20:34.733Z,49.28
2018-06-20T11:21:34.721Z,50.04
2018-06-20T11:22:34.695Z,49.22
2018-06-20T11:23:34.737Z,49.73
2018-06-20T11:24:34.705Z,49.22
2018-06-20T11:25:35.063Z,49.42
2018-06-20T11:26:34.749Z,47.21
2018-06-20T11:27:34.718Z,48
2018-06-20T11:28:34.765Z,48.32
2018-06-20T11:29:34.702Z,48.08
2018-06-20T11:30:34.703Z,48.6
2018-06-20T11:31:34.688Z,48.85
2018-06-20T11:32:34.701Z,47.57
2018-06-20T11:33:34.693Z,47.57
2018-06-20T11:34:34.708Z,46.59
2018-06-20T11:35:34.707Z,47.08
2018-06-20T11:36:34.690Z,47.76
2018-06-20T11:37:34.696Z,46.83
2018-06-20T11:38:34.689Z,46.74
2018-06-20T11:39:34.760Z,47.13
2018-06-20T11:40:34.812Z,47.42
2018-06-20T11:41:34.700Z,46.53
2018-06-20T11:42:34.709Z,47.21
2018-06-20T11:43:34.709Z,47.33
2018-06-20T11:44:34.693Z,47.64
2018-06-20T11:45:34.729Z,47.4
2018-06-20T11:46:34.712Z,44.86
2018-06-20T11:47:34.716Z,45.24
2018-06-20T11:48:34.717Z,46.65
2018-06-20T11:49:34.697Z,46.83
2018-06-20T11:50:34.718Z,46.66
2018-06-20T11:51:34.727Z,46.89
2018-06-20T11:52:34.741Z,46.25
2018-06-20T11:53:34.730Z,47
2018-06-20T11:54:34.924Z,45.77
2018-06-20T11:55:34.698Z,43.68
2018-06-20T11:56:34.876Z,44.76
2018-06-20T11:57:34.719Z,45.42
2018-06-20T11:58:34.750Z,46.08
2018-06-20T11:59:34.710Z,46.17
2018-06-20T12:00:34.784Z,45.43
2018-06-20T12:01:34.746Z,45.74
2018-06-20T12:02:34.728Z,44.67
2018-06-20T12:03:34.746Z,44.36
2018-06-20T12:04:34.724Z,44.28
2018-06-20T12:05:34.864Z,42.74
2018-06-20T12:06:34.741Z,44.2
2018-06-20T12:07:34.730Z,45.44
2018-06-20T12:08:34.748Z,45.02
2018-06-20T12:09:34.727Z,43.7
2018-06-20T12:10:34.750Z,43.69
2018-06-20T12:11:34.858Z,44.2
2018-06-20T12:12:34.730Z,44.2
2018-06-20T12:13:34.868Z,43.75
2018-06-20T12:14:34.724Z,44.4
2018-06-20T12:15:34.741Z,45.17
2018-06-20T12:16:34.919Z,44.5
2018-06-20T12:17:34.742Z,45.5
2018-06-20T12:18:34.771Z,45.06
2018-06-20T12:19:34.847Z,44.9
2018-06-20T12:20:34.779Z,45.52
2018-06-20T12:21:34.954Z,44.28
2018-06-20T12:22:34.784Z,44.63
2018-06-20T12:23:34.747Z,45.01
2018-06-20T12:24:34.734Z,44.96
2018-06-20T12:25:34.755Z,44.03
2018-06-20T12:26:34.817Z,44.64
2018-06-20T12:27:34.968Z,44.59
2018-06-20T12:28:34.792Z,45.13
2018-06-20T12:29:34.784Z,43.75
2018-06-20T12:30:34.795Z,44.13
2018-06-20T12:31:34.764Z,43.83
2018-06-20T12:32:34.738Z,44.09
2018-06-20T12:33:34.908Z,44.22
2018-06-20T12:34:34.745Z,42.6
2018-06-20T12:35:34.749Z,43.27
2018-06-20T12:36:34.801Z,42.81
2018-06-20T12:37:34.798Z,43.07
2018-06-20T12:38:34.944Z,43.95
2018-06-20T12:39:34.835Z,44.04
2018-06-20T12:40:34.899Z,43.46
2018-06-20T12:41:34.758Z,42.56
2018-06-20T12:42:34.872Z,42.02
2018-06-20T12:43:34.909Z,42.41
2018-06-20T12:44:34.740Z,42.29
2018-06-20T12:45:34.768Z,43.25
2018-06-20T12:46:34.751Z,42.55
2018-06-20T12:47:34.771Z,42.99
2018-06-20T12:48:34.751Z,42.49
2018-06-20T12:49:34.762Z,42.3
2018-06-20T12:50:34.762Z,42.42
2018-06-20T12:51:34.760Z,41.84
2018-06-20T12:52:34.858Z,42.45
2018-06-20T12:53:34.783Z,42.36
2018-06-20T12:54:34.815Z,41.91
2018-06-20T12:55:34.769Z,42.5